createdAt,value
2016-08-03T00:09:21.824Z,47.9
2016-08-03T00:20:17.621Z,48
2016-08-03T00:31:16.284Z,48.2
2016-08-03T00:42:16.984Z,74.1
2016-08-03T00:53:16.532Z,48.9
2016-08-03T01:04:16.620Z,49.2
2016-08-03T01:15:16.743Z,49.1
2016-08-03T01:26:16.842Z,49.3
2016-08-03T01:37:16.680Z,49
2016-08-03T01:48:17.018Z,49.4
2016-08-03T01:59:17.707Z,49
2016-08-03T02:10:17.111Z,49.5
2016-08-03T02:21:16.664Z,47.4
2016-08-03T02:32:18.370Z,47.4
2016-08-03T02:43:22.600Z,47.3
2016-08-03T02:54:16.331Z,47.2
2016-08-03T03:05:17.144Z,46.3
2016-08-03T03:16:16.475Z,45.3
2016-08-03T03:27:16.566Z,45.2
2016-08-03T03:38:17.406Z,45.2
2016-08-03T03:49:16.870Z,44.5
2016-08-03T04:00:16.951Z,44.3
2016-08-03T04:11:16.396Z,43.6
2016-08-03T04:22:17.890Z,43.2
2016-08-03T04:33:17.246Z,45.6
2016-08-03T04:44:16.894Z,46.4
2016-08-03T04:55:17.188Z,45.9
2016-08-03T05:06:16.892Z,47.1
2016-08-03T05:17:16.712Z,48.4
2016-08-03T05:28:16.971Z,49.7
2016-08-03T05:39:16.603Z,50
2016-08-03T05:50:17.478Z,50.2
2016-08-03T06:01:16.896Z,51.2
2016-08-03T06:12:17.658Z,51.3
2016-08-03T06:23:16.309Z,51.6
2016-08-03T06:34:16.436Z,52.4
2016-08-03T06:45:16.461Z,52.5
2016-08-03T06:56:16.625Z,53
2016-08-03T07:07:16.496Z,53
2016-08-03T07:18:16.707Z,53
2016-08-03T07:29:16.435Z,53.7
2016-08-03T07:40:17.293Z,53.6
2016-08-03T07:51:16.104Z,53.3
2016-08-03T08:02:17.969Z,54.2
2016-08-03T08:13:21.559Z,53.8
2016-08-03T08:24:21.303Z,54.6
2016-08-03T08:35:21.223Z,54.3
2016-08-03T08:46:16.634Z,54
2016-08-03T08:57:16.160Z,54.6
2016-08-03T09:08:17.569Z,54.8
2016-08-03T09:19:16.729Z,54.5
2016-08-03T09:30:16.402Z,52.3
2016-08-03T09:41:16.438Z,52
2016-08-03T09:52:17.784Z,51.9
2016-08-03T10:03:16.687Z,51.6
2016-08-03T10:14:16.780Z,50.5
2016-08-03T10:25:17.047Z,49.4
2016-08-03T10:36:16.475Z,51.4
2016-08-03T10:47:21.194Z,52.2
2016-08-03T10:58:16.489Z,52.5
2016-08-03T11:09:16.353Z,53.3
2016-08-03T11:20:17.198Z,52.3
2016-08-03T11:31:16.712Z,52.6
2016-08-03T11:42:22.990Z,52.9
2016-08-03T11:53:16.795Z,52.8
2016-08-03T12:04:16.701Z,52.3
2016-08-03T12:15:16.464Z,53
2016-08-03T12:26:17.524Z,53
2016-08-03T12:37:16.762Z,52.9
2016-08-03T12:48:16.437Z,53.2
2016-08-03T12:59:16.564Z,52.6
2016-08-03T13:10:23.008Z,52.4
2016-08-03T13:21:16.539Z,52.6
2016-08-03T13:32:18.354Z,52.4
2016-08-03T13:43:16.953Z,52.3
2016-08-03T13:54:17.372Z,51.5
2016-08-03T14:05:21.279Z,49.2
2016-08-03T14:16:16.458Z,48.8
2016-08-03T14:27:18.306Z,48.3
2016-08-03T14:38:17.059Z,47
2016-08-03T14:49:16.827Z,46.4
2016-08-03T15:00:17.031Z,45.8
2016-08-03T15:11:21.341Z,44.6
2016-08-03T15:22:17.858Z,44.3
2016-08-03T15:33:16.362Z,45.8
2016-08-03T15:44:17.106Z,46
2016-08-03T15:55:16.546Z,45.7
2016-08-03T16:06:17.194Z,46.2
2016-08-03T16:17:16.551Z,46
2016-08-03T16:28:16.487Z,46.4
2016-08-03T16:39:16.980Z,46.1
2016-08-03T16:50:17.370Z,46.5
2016-08-03T17:01:16.518Z,46.4
2016-08-03T17:12:17.429Z,46.7
2016-08-03T17:23:17.157Z,46.4
2016-08-03T17:34:16.736Z,46.9
2016-08-03T17:45:16.884Z,46.9
2016-08-03T17:56:16.948Z,46.8
2016-08-03T18:07:16.801Z,46.5
2016-08-03T18:18:16.949Z,46.7
2016-08-03T18:29:17.495Z,47.1
2016-08-03T18:40:16.211Z,46.4
2016-08-03T18:51:16.976Z,48.3
2016-08-03T19:02:17.354Z,46.7
2016-08-03T19:13:16.166Z,46.2
2016-08-03T19:24:16.860Z,46.2
2016-08-03T19:35:17.265Z,46.9
2016-08-03T19:46:21.641Z,46.8
2016-08-03T19:57:17.011Z,46.4
2016-08-03T20:08:16.588Z,46.8
2016-08-03T20:19:16.680Z,46.6
2016-08-03T20:30:16.952Z,46.3
2016-08-03T20:41:16.127Z,46.4
2016-08-03T20:52:18.215Z,46.4
2016-08-03T21:03:21.522Z,45.9
2016-08-03T21:14:16.285Z,46
2016-08-03T21:25:16.997Z,46.1
2016-08-03T21:36:16.659Z,46.3
2016-08-03T21:47:16.587Z,46.6
2016-08-03T21:58:17.351Z,46.7
2016-08-03T22:09:16.837Z,46.4
2016-08-03T22:20:16.727Z,46.2
2016-08-03T22:31:16.795Z,46.2
2016-08-03T22:42:16.887Z,46.1
2016-08-03T22:53:15.911Z,46
2016-08-03T23:04:16.197Z,45.7
2016-08-03T23:15:17.118Z,46.1
2016-08-03T23:26:16.813Z,45.6
2016-08-03T23:37:16.037Z,45.1
2016-08-03T23:48:21.706Z,45
2016-08-03T23:59:16.827Z,45.2
